TUI73E EHAM-EGAC
Flight info
| Callsign | TUI73E |
|---|---|
| Flight time | 1h 17m |
| Altitude | 38000 |
| Route | BERGI L602 NALAX L46 GETNO DCT REMSI DCT NINEB M148 MAGEE |
| Aircraft | A320/M-SDE3FGHIRWY/LB1 |
Departure
| Time | 2026-05-04 18:56 |
|---|---|
| Airport | Amsterdam Airport Schiphol (EHAM) |
Arrival
| Time | 2026-05-04 20:14 |
|---|---|
| Airport | George Best Belfast City Airport (EGAC) |
| Time | Latitude | Longitude | Altitude | Speed | Heading |
|---|---|---|---|---|---|
| 2026-05-04 18:51 | 52.32028 | 4.74192 | -2 ft | 24 kts | 277° |
| 2026-05-04 18:51 | 52.32037 | 4.74014 | -3 ft | 23 kts | 273° |
| 2026-05-04 18:51 | 52.32049 | 4.73665 | -2 ft | 24 kts | 273° |
| 2026-05-04 18:52 | 52.32074 | 4.73393 | -2 ft | 24 kts | 298° |
| 2026-05-04 18:52 | 52.32192 | 4.73208 | -2 ft | 26 kts | 319° |
| 2026-05-04 18:52 | 52.32293 | 4.73067 | -2 ft | 31 kts | 319° |
| 2026-05-04 18:52 | 52.32460 | 4.72833 | -2 ft | 25 kts | 319° |
| 2026-05-04 18:53 | 52.32626 | 4.72598 | -2 ft | 23 kts | 318° |
| 2026-05-04 18:53 | 52.32684 | 4.72507 | -2 ft | 15 kts | 313° |
| 2026-05-04 18:53 | 52.32753 | 4.72383 | -2 ft | 14 kts | 311° |
| 2026-05-04 18:53 | 52.32832 | 4.72236 | -2 ft | 23 kts | 311° |
| 2026-05-04 18:54 | 52.32958 | 4.72003 | -2 ft | 28 kts | 311° |
| 2026-05-04 18:54 | 52.33085 | 4.71768 | -2 ft | 27 kts | 311° |
| 2026-05-04 18:54 | 52.33135 | 4.71508 | -2 ft | 24 kts | 248° |
| 2026-05-04 18:54 | 52.33205 | 4.71283 | -2 ft | 23 kts | 311° |
| 2026-05-04 18:55 | 52.33310 | 4.71091 | -3 ft | 22 kts | 311° |
| 2026-05-04 18:55 | 52.33619 | 4.70964 | -1 ft | 46 kts | 2° |
| 2026-05-04 18:55 | 52.34165 | 4.71012 | -5 ft | 109 kts | 3° |
| 2026-05-04 18:56 | 52.35095 | 4.71098 | 36 ft | 154 kts | 5° |
| 2026-05-04 18:56 | 52.36203 | 4.71218 | 567 ft | 162 kts | 5° |
| 2026-05-04 18:56 | 52.37365 | 4.71349 | 1073 ft | 177 kts | 6° |
| 2026-05-04 18:56 | 52.38602 | 4.71504 | 1783 ft | 177 kts | 5° |
| 2026-05-04 18:57 | 52.39920 | 4.71630 | 2029 ft | 200 kts | 4° |
| 2026-05-04 18:57 | 52.41373 | 4.71753 | 2235 ft | 215 kts | 4° |
| 2026-05-04 18:57 | 52.42903 | 4.71486 | 2459 ft | 230 kts | 339° |
| 2026-05-04 18:57 | 52.44251 | 4.70088 | 2933 ft | 232 kts | 320° |
| 2026-05-04 18:58 | 52.45433 | 4.68220 | 3325 ft | 242 kts | 315° |
| 2026-05-04 18:58 | 52.46655 | 4.66179 | 3618 ft | 257 kts | 314° |
| 2026-05-04 18:58 | 52.47913 | 4.64062 | 4321 ft | 259 kts | 314° |
| 2026-05-04 18:58 | 52.49189 | 4.61945 | 5024 ft | 262 kts | 314° |
| 2026-05-04 18:59 | 52.50482 | 4.59816 | 5790 ft | 261 kts | 314° |
| 2026-05-04 18:59 | 52.51787 | 4.57708 | 6484 ft | 267 kts | 318° |
| 2026-05-04 18:59 | 52.53344 | 4.55950 | 7110 ft | 272 kts | 328° |
| 2026-05-04 18:59 | 52.55000 | 4.54432 | 7863 ft | 274 kts | 329° |
| 2026-05-04 19:00 | 52.56664 | 4.52942 | 8516 ft | 279 kts | 330° |
| 2026-05-04 19:00 | 52.58385 | 4.51387 | 9237 ft | 282 kts | 329° |
| 2026-05-04 19:00 | 52.60118 | 4.49801 | 9966 ft | 287 kts | 329° |
| 2026-05-04 19:00 | 52.61893 | 4.48157 | 10412 ft | 301 kts | 329° |
| 2026-05-04 19:01 | 52.63784 | 4.46388 | 10610 ft | 323 kts | 328° |
| 2026-05-04 19:01 | 52.65778 | 4.44514 | 11082 ft | 333 kts | 328° |
| 2026-05-04 19:01 | 52.67802 | 4.42612 | 11811 ft | 336 kts | 328° |
| 2026-05-04 19:01 | 52.69819 | 4.40709 | 12510 ft | 340 kts | 328° |
| 2026-05-04 19:02 | 52.71891 | 4.38751 | 13281 ft | 343 kts | 329° |
| 2026-05-04 19:02 | 52.73939 | 4.36756 | 13979 ft | 347 kts | 323° |
| 2026-05-04 19:02 | 52.75612 | 4.33940 | 14710 ft | 344 kts | 302° |
| 2026-05-04 19:02 | 52.76858 | 4.30551 | 15459 ft | 346 kts | 298° |
| 2026-05-04 19:03 | 52.78035 | 4.27032 | 16109 ft | 351 kts | 297° |
| 2026-05-04 19:03 | 52.79208 | 4.23448 | 16748 ft | 357 kts | 297° |
| 2026-05-04 19:03 | 52.80402 | 4.19806 | 17394 ft | 362 kts | 297° |
| 2026-05-04 19:03 | 52.81606 | 4.16167 | 18099 ft | 365 kts | 297° |
| 2026-05-04 19:04 | 52.82838 | 4.12469 | 18762 ft | 368 kts | 297° |
| 2026-05-04 19:04 | 52.84079 | 4.08760 | 19407 ft | 369 kts | 297° |
| 2026-05-04 19:04 | 52.85329 | 4.05030 | 20066 ft | 371 kts | 297° |
| 2026-05-04 19:04 | 52.86584 | 4.01285 | 20723 ft | 372 kts | 297° |
| 2026-05-04 19:05 | 52.87801 | 3.97650 | 21328 ft | 374 kts | 296° |
| 2026-05-04 19:05 | 52.89052 | 3.93911 | 21918 ft | 377 kts | 296° |
| 2026-05-04 19:05 | 52.90327 | 3.90091 | 22493 ft | 380 kts | 296° |
| 2026-05-04 19:05 | 52.91609 | 3.86247 | 23080 ft | 382 kts | 296° |
| 2026-05-04 19:06 | 52.92900 | 3.82368 | 23649 ft | 385 kts | 296° |
| 2026-05-04 19:06 | 52.94199 | 3.78462 | 24111 ft | 388 kts | 296° |
| 2026-05-04 19:06 | 52.95511 | 3.74510 | 24560 ft | 391 kts | 295° |
| 2026-05-04 19:06 | 52.96817 | 3.70569 | 25064 ft | 392 kts | 295° |
| 2026-05-04 19:07 | 52.98118 | 3.66636 | 25475 ft | 395 kts | 295° |
| 2026-05-04 19:07 | 52.99450 | 3.62609 | 25864 ft | 399 kts | 295° |
| 2026-05-04 19:07 | 53.00794 | 3.58541 | 26260 ft | 403 kts | 295° |
| 2026-05-04 19:07 | 53.02148 | 3.54442 | 26671 ft | 406 kts | 295° |
| 2026-05-04 19:08 | 53.03517 | 3.50316 | 27067 ft | 409 kts | 295° |
| 2026-05-04 19:08 | 53.04897 | 3.46155 | 27458 ft | 412 kts | 295° |
| 2026-05-04 19:08 | 53.06271 | 3.42011 | 27814 ft | 415 kts | 295° |
| 2026-05-04 19:08 | 53.07670 | 3.37778 | 28176 ft | 418 kts | 295° |
| 2026-05-04 19:09 | 53.09073 | 3.33516 | 28545 ft | 420 kts | 294° |
| 2026-05-04 19:09 | 53.10264 | 3.29080 | 28890 ft | 419 kts | 285° |
| 2026-05-04 19:09 | 53.11008 | 3.24393 | 29235 ft | 419 kts | 279° |
| 2026-05-04 19:09 | 53.11611 | 3.19708 | 29585 ft | 421 kts | 278° |
| 2026-05-04 19:10 | 53.12216 | 3.14915 | 29915 ft | 424 kts | 278° |
| 2026-05-04 19:10 | 53.12828 | 3.10101 | 30208 ft | 426 kts | 278° |
| 2026-05-04 19:10 | 53.13454 | 3.05242 | 30522 ft | 429 kts | 279° |
| 2026-05-04 19:10 | 53.14089 | 3.00363 | 30738 ft | 432 kts | 279° |
| 2026-05-04 19:11 | 53.14706 | 2.95642 | 30957 ft | 435 kts | 279° |
| 2026-05-04 19:11 | 53.15352 | 2.90714 | 31239 ft | 437 kts | 279° |
| 2026-05-04 19:11 | 53.15998 | 2.85769 | 31576 ft | 437 kts | 280° |
| 2026-05-04 19:11 | 53.16644 | 2.80815 | 31970 ft | 435 kts | 280° |
| 2026-05-04 19:12 | 53.17282 | 2.75894 | 32352 ft | 434 kts | 280° |
| 2026-05-04 19:12 | 53.18554 | 2.66029 | 33019 ft | 434 kts | 280° |
| 2026-05-04 19:12 | 53.19185 | 2.61107 | 33373 ft | 433 kts | 280° |
| 2026-05-04 19:13 | 53.19805 | 2.56262 | 33720 ft | 433 kts | 280° |
| 2026-05-04 19:13 | 53.20431 | 2.51347 | 33970 ft | 435 kts | 281° |
| 2026-05-04 19:13 | 53.21057 | 2.46396 | 34140 ft | 437 kts | 281° |
| 2026-05-04 19:13 | 53.21680 | 2.41429 | 34420 ft | 436 kts | 281° |
| 2026-05-04 19:14 | 53.22301 | 2.36458 | 34743 ft | 435 kts | 280° |
| 2026-05-04 19:14 | 53.22917 | 2.31500 | 35006 ft | 435 kts | 280° |
| 2026-05-04 19:14 | 53.23533 | 2.26534 | 35165 ft | 438 kts | 281° |
| 2026-05-04 19:14 | 53.24142 | 2.21607 | 35310 ft | 440 kts | 281° |
| 2026-05-04 19:15 | 53.24758 | 2.16609 | 35596 ft | 439 kts | 280° |
| 2026-05-04 19:15 | 53.25372 | 2.11610 | 35924 ft | 437 kts | 280° |
| 2026-05-04 19:15 | 53.25979 | 2.06646 | 36180 ft | 436 kts | 280° |
| 2026-05-04 19:15 | 53.26587 | 2.01666 | 36349 ft | 438 kts | 281° |
| 2026-05-04 19:16 | 53.27180 | 1.96776 | 36441 ft | 442 kts | 281° |
| 2026-05-04 19:16 | 53.27788 | 1.91755 | 36686 ft | 441 kts | 280° |
| 2026-05-04 19:16 | 53.28386 | 1.86796 | 37015 ft | 438 kts | 280° |
| 2026-05-04 19:16 | 53.28985 | 1.81808 | 37296 ft | 437 kts | 280° |
| 2026-05-04 19:17 | 53.29581 | 1.76825 | 37497 ft | 438 kts | 280° |
| 2026-05-04 19:17 | 53.30177 | 1.71820 | 37693 ft | 438 kts | 280° |
| 2026-05-04 19:17 | 53.30770 | 1.66826 | 37930 ft | 437 kts | 280° |
| 2026-05-04 19:17 | 53.31361 | 1.61842 | 38058 ft | 439 kts | 280° |
| 2026-05-04 19:18 | 53.31956 | 1.56800 | 38057 ft | 442 kts | 280° |
| 2026-05-04 19:18 | 53.33181 | 1.46744 | 38052 ft | 442 kts | 282° |
| 2026-05-04 19:19 | 53.34643 | 1.36790 | 38044 ft | 437 kts | 283° |
| 2026-05-04 19:19 | 53.36121 | 1.26929 | 38053 ft | 434 kts | 283° |
| 2026-05-04 19:20 | 53.37542 | 1.17188 | 38055 ft | 432 kts | 282° |
| 2026-05-04 19:20 | 53.38947 | 1.07370 | 38055 ft | 432 kts | 282° |
| 2026-05-04 19:21 | 53.40318 | 0.97703 | 38052 ft | 433 kts | 282° |
| 2026-05-04 19:21 | 53.41697 | 0.87921 | 38061 ft | 435 kts | 282° |
| 2026-05-04 19:22 | 53.43087 | 0.77993 | 38056 ft | 438 kts | 282° |
| 2026-05-04 19:22 | 53.44475 | 0.68025 | 38056 ft | 440 kts | 282° |
| 2026-05-04 19:23 | 53.45862 | 0.57992 | 38056 ft | 442 kts | 282° |
| 2026-05-04 19:23 | 53.47241 | 0.47967 | 38044 ft | 443 kts | 282° |
| 2026-05-04 19:24 | 53.48621 | 0.37857 | 38049 ft | 443 kts | 282° |
| 2026-05-04 19:24 | 53.49837 | 0.28955 | 38046 ft | 443 kts | 282° |
| 2026-05-04 19:25 | 53.51213 | 0.18839 | 38046 ft | 442 kts | 282° |
| 2026-05-04 19:25 | 53.52574 | 0.08765 | 38054 ft | 441 kts | 282° |
| 2026-05-04 19:26 | 53.53880 | -0.01096 | 38046 ft | 440 kts | 282° |
| 2026-05-04 19:26 | 53.55196 | -0.11139 | 38049 ft | 439 kts | 282° |
| 2026-05-04 19:27 | 53.56496 | -0.21102 | 38049 ft | 438 kts | 282° |
| 2026-05-04 19:27 | 53.57796 | -0.31132 | 38049 ft | 438 kts | 282° |
| 2026-05-04 19:28 | 53.59088 | -0.41143 | 38048 ft | 438 kts | 282° |
| 2026-05-04 19:28 | 53.60369 | -0.51121 | 38045 ft | 438 kts | 282° |
| 2026-05-04 19:29 | 53.61649 | -0.61160 | 38052 ft | 438 kts | 281° |
| 2026-05-04 19:29 | 53.62922 | -0.71216 | 38043 ft | 439 kts | 281° |
| 2026-05-04 19:30 | 53.64185 | -0.81261 | 38041 ft | 440 kts | 281° |
| 2026-05-04 19:30 | 53.65446 | -0.91361 | 38043 ft | 440 kts | 281° |
| 2026-05-04 19:31 | 53.66683 | -1.01336 | 38050 ft | 441 kts | 281° |
| 2026-05-04 19:31 | 53.67937 | -1.11497 | 38041 ft | 441 kts | 281° |
| 2026-05-04 19:32 | 53.69173 | -1.21590 | 38041 ft | 442 kts | 281° |
| 2026-05-04 19:32 | 53.70409 | -1.31757 | 38028 ft | 442 kts | 281° |
| 2026-05-04 19:33 | 53.71637 | -1.41928 | 38035 ft | 442 kts | 281° |
| 2026-05-04 19:33 | 53.72822 | -1.52111 | 38027 ft | 442 kts | 280° |
| 2026-05-04 19:34 | 53.73970 | -1.62279 | 38028 ft | 442 kts | 281° |
| 2026-05-04 19:34 | 53.75086 | -1.72488 | 38013 ft | 441 kts | 280° |
| 2026-05-04 19:35 | 53.76188 | -1.82698 | 38028 ft | 440 kts | 280° |
| 2026-05-04 19:35 | 53.77274 | -1.92814 | 38041 ft | 439 kts | 280° |
| 2026-05-04 19:36 | 53.78340 | -2.02799 | 38015 ft | 426 kts | 280° |
| 2026-05-04 19:36 | 53.78848 | -2.07590 | 38034 ft | 414 kts | 280° |
| 2026-05-04 19:36 | 53.79352 | -2.12357 | 38024 ft | 409 kts | 280° |
| 2026-05-04 19:37 | 53.80355 | -2.21905 | 38064 ft | 415 kts | 280° |
| 2026-05-04 19:37 | 53.81364 | -2.31585 | 38066 ft | 423 kts | 280° |
| 2026-05-04 19:38 | 53.82384 | -2.41453 | 38061 ft | 426 kts | 280° |
| 2026-05-04 19:38 | 53.83398 | -2.51350 | 38057 ft | 427 kts | 280° |
| 2026-05-04 19:39 | 53.84399 | -2.61202 | 38037 ft | 423 kts | 280° |
| 2026-05-04 19:39 | 53.85380 | -2.70942 | 38052 ft | 418 kts | 280° |
| 2026-05-04 19:40 | 53.86188 | -2.79025 | 38067 ft | 419 kts | 279° |
| 2026-05-04 19:40 | 53.87155 | -2.88781 | 38066 ft | 420 kts | 279° |
| 2026-05-04 19:41 | 53.88117 | -2.98558 | 38079 ft | 422 kts | 279° |
| 2026-05-04 19:41 | 53.89048 | -3.08110 | 37734 ft | 418 kts | 280° |
| 2026-05-04 19:41 | 53.89512 | -3.12910 | 36883 ft | 420 kts | 280° |
| 2026-05-04 19:42 | 53.89986 | -3.17825 | 35915 ft | 424 kts | 281° |
| 2026-05-04 19:42 | 53.90463 | -3.22774 | 35145 ft | 425 kts | 280° |
| 2026-05-04 19:42 | 53.90931 | -3.27692 | 34624 ft | 419 kts | 280° |
| 2026-05-04 19:42 | 53.91391 | -3.32529 | 34118 ft | 413 kts | 281° |
| 2026-05-04 19:43 | 53.91845 | -3.37325 | 33487 ft | 408 kts | 281° |
| 2026-05-04 19:43 | 53.92294 | -3.42069 | 32835 ft | 405 kts | 281° |
| 2026-05-04 19:43 | 53.92731 | -3.46714 | 32215 ft | 402 kts | 281° |
| 2026-05-04 19:43 | 53.93167 | -3.51392 | 31618 ft | 398 kts | 281° |
| 2026-05-04 19:44 | 53.93593 | -3.56017 | 31045 ft | 395 kts | 281° |
| 2026-05-04 19:44 | 53.94013 | -3.60625 | 30478 ft | 391 kts | 281° |
| 2026-05-04 19:44 | 53.94426 | -3.65171 | 29873 ft | 387 kts | 280° |
| 2026-05-04 19:44 | 53.94838 | -3.69693 | 28553 ft | 397 kts | 280° |
| 2026-05-04 19:45 | 53.95268 | -3.74416 | 27189 ft | 410 kts | 280° |
| 2026-05-04 19:45 | 53.95726 | -3.79229 | 26237 ft | 410 kts | 284° |
| 2026-05-04 19:45 | 53.96515 | -3.83761 | 25543 ft | 402 kts | 292° |
| 2026-05-04 19:45 | 53.97717 | -3.87995 | 24854 ft | 395 kts | 301° |
| 2026-05-04 19:46 | 53.99104 | -3.92030 | 24184 ft | 390 kts | 302° |
| 2026-05-04 19:46 | 54.00482 | -3.95970 | 23455 ft | 386 kts | 302° |
| 2026-05-04 19:46 | 54.01823 | -3.99840 | 22646 ft | 383 kts | 301° |
| 2026-05-04 19:46 | 54.03116 | -4.03625 | 21919 ft | 378 kts | 301° |
| 2026-05-04 19:47 | 54.04427 | -4.07507 | 21155 ft | 375 kts | 300° |
| 2026-05-04 19:47 | 54.05721 | -4.11357 | 20064 ft | 379 kts | 300° |
| 2026-05-04 19:47 | 54.07128 | -4.15221 | 18912 ft | 387 kts | 304° |
| 2026-05-04 19:47 | 54.08680 | -4.18964 | 17979 ft | 386 kts | 305° |
| 2026-05-04 19:48 | 54.10249 | -4.22625 | 17166 ft | 379 kts | 306° |
| 2026-05-04 19:48 | 54.11784 | -4.26229 | 16358 ft | 373 kts | 305° |
| 2026-05-04 19:48 | 54.13275 | -4.29783 | 15662 ft | 365 kts | 304° |
| 2026-05-04 19:48 | 54.14734 | -4.33293 | 14822 ft | 362 kts | 304° |
| 2026-05-04 19:49 | 54.16169 | -4.36763 | 14343 ft | 350 kts | 304° |
| 2026-05-04 19:49 | 54.17533 | -4.40067 | 14113 ft | 340 kts | 304° |
| 2026-05-04 19:49 | 54.18882 | -4.43341 | 13868 ft | 333 kts | 304° |
| 2026-05-04 19:49 | 54.20198 | -4.46537 | 13601 ft | 326 kts | 304° |
| 2026-05-04 19:50 | 54.21487 | -4.49672 | 13326 ft | 320 kts | 304° |
| 2026-05-04 19:50 | 54.22757 | -4.52764 | 13052 ft | 314 kts | 304° |
| 2026-05-04 19:50 | 54.24000 | -4.55790 | 12794 ft | 308 kts | 304° |
| 2026-05-04 19:50 | 54.25216 | -4.58772 | 12541 ft | 303 kts | 304° |
| 2026-05-04 19:51 | 54.26414 | -4.61720 | 12272 ft | 299 kts | 304° |
| 2026-05-04 19:51 | 54.27596 | -4.64634 | 12010 ft | 294 kts | 304° |
| 2026-05-04 19:51 | 54.28739 | -4.67453 | 11756 ft | 290 kts | 304° |
| 2026-05-04 19:51 | 54.29882 | -4.70277 | 11499 ft | 286 kts | 304° |
| 2026-05-04 19:52 | 54.31013 | -4.73071 | 11251 ft | 283 kts | 304° |
| 2026-05-04 19:52 | 54.32129 | -4.75832 | 11001 ft | 279 kts | 304° |
| 2026-05-04 19:52 | 54.33226 | -4.78551 | 10755 ft | 276 kts | 304° |
| 2026-05-04 19:52 | 54.34316 | -4.81254 | 10501 ft | 274 kts | 304° |
| 2026-05-04 19:53 | 54.35395 | -4.83932 | 10262 ft | 272 kts | 304° |
| 2026-05-04 19:53 | 54.36458 | -4.86575 | 10132 ft | 273 kts | 304° |
| 2026-05-04 19:53 | 54.37542 | -4.89271 | 10099 ft | 275 kts | 304° |
| 2026-05-04 19:53 | 54.38626 | -4.91971 | 10092 ft | 272 kts | 304° |
| 2026-05-04 19:54 | 54.39696 | -4.94639 | 10091 ft | 272 kts | 304° |
| 2026-05-04 19:54 | 54.40770 | -4.97315 | 10096 ft | 272 kts | 303° |
| 2026-05-04 19:54 | 54.41842 | -4.99994 | 10079 ft | 272 kts | 303° |
| 2026-05-04 19:54 | 54.42883 | -5.02598 | 10081 ft | 271 kts | 303° |
| 2026-05-04 19:55 | 54.43953 | -5.05275 | 10090 ft | 271 kts | 303° |
| 2026-05-04 19:55 | 54.45027 | -5.07944 | 10078 ft | 271 kts | 304° |
| 2026-05-04 19:55 | 54.46091 | -5.10570 | 10090 ft | 271 kts | 304° |
| 2026-05-04 19:55 | 54.47167 | -5.13230 | 10080 ft | 271 kts | 304° |
| 2026-05-04 19:56 | 54.48247 | -5.15905 | 10088 ft | 271 kts | 304° |
| 2026-05-04 19:56 | 54.49322 | -5.18572 | 10081 ft | 271 kts | 304° |
| 2026-05-04 19:56 | 54.50403 | -5.21243 | 10088 ft | 271 kts | 306° |
| 2026-05-04 19:56 | 54.51681 | -5.23572 | 10092 ft | 272 kts | 318° |
| 2026-05-04 19:57 | 54.53165 | -5.25615 | 10087 ft | 273 kts | 321° |
| 2026-05-04 19:57 | 54.54677 | -5.27590 | 10083 ft | 273 kts | 321° |
| 2026-05-04 19:57 | 54.56200 | -5.29579 | 10086 ft | 274 kts | 321° |
| 2026-05-04 19:57 | 54.57714 | -5.31576 | 10083 ft | 274 kts | 321° |
| 2026-05-04 19:58 | 54.59229 | -5.33593 | 10091 ft | 274 kts | 321° |
| 2026-05-04 19:58 | 54.60733 | -5.35610 | 10082 ft | 274 kts | 320° |
| 2026-05-04 19:58 | 54.62235 | -5.37635 | 10091 ft | 274 kts | 320° |
| 2026-05-04 19:58 | 54.63718 | -5.39643 | 10100 ft | 274 kts | 320° |
| 2026-05-04 19:59 | 54.65216 | -5.41675 | 10082 ft | 274 kts | 320° |
| 2026-05-04 19:59 | 54.66711 | -5.43710 | 10084 ft | 273 kts | 320° |
| 2026-05-04 19:59 | 54.68029 | -5.46016 | 10042 ft | 268 kts | 300° |
| 2026-05-04 19:59 | 54.68636 | -5.48974 | 10004 ft | 258 kts | 281° |
| 2026-05-04 20:00 | 54.68924 | -5.51990 | 9932 ft | 249 kts | 279° |
| 2026-05-04 20:00 | 54.68999 | -5.54923 | 9800 ft | 243 kts | 260° |
| 2026-05-04 20:00 | 54.68283 | -5.57542 | 9558 ft | 245 kts | 230° |
| 2026-05-04 20:00 | 54.66882 | -5.59203 | 9277 ft | 251 kts | 204° |
| 2026-05-04 20:01 | 54.65211 | -5.60134 | 9143 ft | 252 kts | 199° |
| 2026-05-04 20:01 | 54.63543 | -5.60958 | 9097 ft | 252 kts | 199° |
| 2026-05-04 20:01 | 54.61857 | -5.61776 | 9077 ft | 252 kts | 198° |
| 2026-05-04 20:01 | 54.60166 | -5.62596 | 9065 ft | 252 kts | 198° |
| 2026-05-04 20:02 | 54.58472 | -5.63421 | 9082 ft | 252 kts | 198° |
| 2026-05-04 20:02 | 54.56777 | -5.64245 | 9065 ft | 253 kts | 198° |
| 2026-05-04 20:02 | 54.55101 | -5.65061 | 9080 ft | 253 kts | 198° |
| 2026-05-04 20:02 | 54.53407 | -5.65885 | 9060 ft | 252 kts | 198° |
| 2026-05-04 20:03 | 54.51727 | -5.66701 | 8947 ft | 249 kts | 198° |
| 2026-05-04 20:03 | 54.50064 | -5.67509 | 8658 ft | 249 kts | 198° |
| 2026-05-04 20:03 | 54.48392 | -5.68320 | 8378 ft | 250 kts | 198° |
| 2026-05-04 20:03 | 54.46722 | -5.69128 | 8137 ft | 249 kts | 198° |
| 2026-05-04 20:04 | 54.45059 | -5.69931 | 7897 ft | 248 kts | 198° |
| 2026-05-04 20:04 | 54.43407 | -5.70766 | 7650 ft | 246 kts | 205° |
| 2026-05-04 20:04 | 54.41978 | -5.72245 | 7407 ft | 241 kts | 219° |
| 2026-05-04 20:04 | 54.40620 | -5.73927 | 7171 ft | 240 kts | 219° |
| 2026-05-04 20:05 | 54.39263 | -5.75593 | 6927 ft | 240 kts | 218° |
| 2026-05-04 20:05 | 54.37904 | -5.77257 | 6678 ft | 238 kts | 218° |
| 2026-05-04 20:05 | 54.36562 | -5.78916 | 6403 ft | 236 kts | 223° |
| 2026-05-04 20:05 | 54.35608 | -5.81125 | 6053 ft | 227 kts | 255° |
| 2026-05-04 20:06 | 54.35514 | -5.83706 | 5661 ft | 219 kts | 285° |
| 2026-05-04 20:06 | 54.36100 | -5.86104 | 5128 ft | 220 kts | 297° |
| 2026-05-04 20:06 | 54.36804 | -5.88430 | 4608 ft | 219 kts | 298° |
| 2026-05-04 20:06 | 54.37511 | -5.90739 | 4157 ft | 218 kts | 298° |
| 2026-05-04 20:07 | 54.38226 | -5.93064 | 4058 ft | 222 kts | 298° |
| 2026-05-04 20:07 | 54.38943 | -5.95399 | 4006 ft | 217 kts | 298° |
| 2026-05-04 20:07 | 54.39609 | -5.97578 | 3990 ft | 198 kts | 298° |
| 2026-05-04 20:07 | 54.40217 | -5.99579 | 3970 ft | 181 kts | 298° |
| 2026-05-04 20:08 | 54.40777 | -6.01416 | 4001 ft | 176 kts | 298° |
| 2026-05-04 20:08 | 54.41349 | -6.03290 | 4008 ft | 178 kts | 298° |
| 2026-05-04 20:08 | 54.41927 | -6.05185 | 4014 ft | 179 kts | 298° |
| 2026-05-04 20:08 | 54.42511 | -6.07069 | 4006 ft | 179 kts | 302° |
| 2026-05-04 20:09 | 54.43422 | -6.08415 | 3894 ft | 176 kts | 339° |
| 2026-05-04 20:09 | 54.44614 | -6.08333 | 3520 ft | 182 kts | 26° |
| 2026-05-04 20:09 | 54.45575 | -6.06901 | 3188 ft | 183 kts | 39° |
| 2026-05-04 20:09 | 54.46575 | -6.05558 | 3021 ft | 182 kts | 33° |
| 2026-05-04 20:10 | 54.47617 | -6.04290 | 3017 ft | 184 kts | 32° |
| 2026-05-04 20:10 | 54.48668 | -6.03026 | 2985 ft | 185 kts | 32° |
| 2026-05-04 20:10 | 54.49719 | -6.01762 | 2800 ft | 181 kts | 32° |
| 2026-05-04 20:10 | 54.50717 | -6.00562 | 2579 ft | 166 kts | 32° |
| 2026-05-04 20:11 | 54.51653 | -5.99439 | 2356 ft | 162 kts | 32° |
| 2026-05-04 20:11 | 54.52570 | -5.98338 | 2125 ft | 160 kts | 32° |
| 2026-05-04 20:11 | 54.53480 | -5.97245 | 1904 ft | 159 kts | 32° |
| 2026-05-04 20:11 | 54.54390 | -5.96153 | 1687 ft | 160 kts | 32° |
| 2026-05-04 20:12 | 54.55296 | -5.95066 | 1467 ft | 160 kts | 32° |
| 2026-05-04 20:12 | 54.56178 | -5.94005 | 1284 ft | 146 kts | 33° |
| 2026-05-04 20:12 | 54.56980 | -5.93043 | 1048 ft | 135 kts | 33° |
| 2026-05-04 20:12 | 54.57747 | -5.92114 | 874 ft | 134 kts | 34° |
| 2026-05-04 20:13 | 54.58508 | -5.91174 | 691 ft | 136 kts | 33° |
| 2026-05-04 20:13 | 54.59287 | -5.90268 | 527 ft | 135 kts | 34° |
| 2026-05-04 20:13 | 54.60054 | -5.89345 | 330 ft | 132 kts | 33° |
| 2026-05-04 20:13 | 54.60804 | -5.88454 | 161 ft | 131 kts | 32° |
| 2026-05-04 20:14 | 54.61546 | -5.87565 | 29 ft | 122 kts | 32° |
| 2026-05-04 20:14 | 54.62067 | -5.86940 | 22 ft | 43 kts | 34° |
| 2026-05-04 20:14 | 54.62225 | -5.86756 | 23 ft | 25 kts | 34° |
| 2026-05-04 20:14 | 54.62362 | -5.86591 | 23 ft | 23 kts | 41° |
| 2026-05-04 20:15 | 54.62454 | -5.86460 | 23 ft | 13 kts | 324° |
| 2026-05-04 20:15 | 54.62437 | -5.86508 | 23 ft | 5 kts | 213° |
| 2026-05-04 20:15 | 54.62375 | -5.86578 | 25 ft | 17 kts | 214° |
| 2026-05-04 20:15 | 54.62252 | -5.86723 | 24 ft | 23 kts | 214° |
| 2026-05-04 20:16 | 54.62098 | -5.86907 | 22 ft | 27 kts | 214° |
| 2026-05-04 20:16 | 54.61975 | -5.87053 | 22 ft | 20 kts | 214° |
| 2026-05-04 20:16 | 54.61864 | -5.87168 | 28 ft | 16 kts | 187° |
| 2026-05-04 20:16 | 54.61784 | -5.87048 | 22 ft | 13 kts | 125° |
| 2026-05-04 20:17 | 54.61747 | -5.86994 | 22 ft | 0 kts | 165° |
| 2026-05-04 20:17 | 54.61746 | -5.86993 | 22 ft | 1 kts | 165° |
| 2026-05-04 20:17 | 54.61731 | -5.86993 | 22 ft | 3 kts | 191° |
| 2026-05-04 20:17 | 54.61728 | -5.86995 | 22 ft | 0 kts | 195° |
| 2026-05-04 20:18 | 54.61726 | -5.86996 | 22 ft | 0 kts | 195° |
| 2026-05-04 20:18 | 54.61723 | -5.86997 | 22 ft | 0 kts | 195° |
| 2026-05-04 20:18 | 54.61721 | -5.86998 | 22 ft | 0 kts | 195° |
| 2026-05-04 20:19 | 54.61713 | -5.87006 | 22 ft | 3 kts | 212° |
| 2026-05-04 20:19 | 54.61670 | -5.87057 | 22 ft | 10 kts | 214° |
| 2026-05-04 20:19 | 54.61616 | -5.87121 | 22 ft | 9 kts | 214° |
| 2026-05-04 20:19 | 54.61596 | -5.87145 | 22 ft | 1 kts | 214° |
| 2026-05-04 20:20 | 54.61590 | -5.87152 | 22 ft | 1 kts | 214° |
| 2026-05-04 20:20 | 54.61570 | -5.87174 | 22 ft | 7 kts | 208° |
| 2026-05-04 20:20 | 54.61527 | -5.87165 | 22 ft | 4 kts | 154° |
| 2026-05-04 20:20 | 54.61505 | -5.87147 | 23 ft | 3 kts | 155° |
| 2026-05-04 20:21 | 54.61503 | -5.87146 | 25 ft | 0 kts | 156° |